Time;durP1;ratioP1;P1;durP2;ratioP2;P2;SDS_P1;SDS_P2;PMS_P1;PMS_P2;Temp;Humidity;BMP_temperature;BMP_pressure;BME280_temperature;BME280_humidity;BME280_pressure;Samples;Min_cycle;Max_cycle;Signal;HPM_P1;HPM_P2
2023/07/11 00:00:46;;;;;;;4.18;3.55;;;;;;;22.99;61.35;98342.13;4975279;28;20212;-73
2023/07/11 00:03:13;;;;;;;7.05;3.45;;;;;;;23.00;61.07;98343.72;4975907;28;20235;-73
2023/07/11 00:05:40;;;;;;;4.82;3.40;;;;;;;22.95;61.40;98336.47;4975776;28;20263;-73
2023/07/11 00:08:07;;;;;;;3.97;3.50;;;;;;;22.92;62.67;98337.06;4975493;28;20675;-73
2023/07/11 00:10:35;;;;;;;3.42;3.17;;;;;;;22.83;62.09;98335.28;4974411;28;20215;-73
2023/07/11 00:13:02;;;;;;;5.10;3.58;;;;;;;22.73;64.01;98329.97;4975409;28;20207;-73
2023/07/11 00:15:28;;;;;;;5.85;3.92;;;;;;;22.72;63.18;98331.09;4975808;28;20282;-73
2023/07/11 00:17:54;;;;;;;6.03;3.63;;;;;;;22.60;62.94;98323.38;4975315;28;20232;-73
2023/07/11 00:20:21;;;;;;;5.65;3.70;;;;;;;22.60;63.58;98322.53;4974910;28;20212;-73
2023/07/11 00:22:47;;;;;;;5.18;3.60;;;;;;;22.52;63.80;98328.63;4975704;28;20215;-73
2023/07/11 00:25:15;;;;;;;4.10;3.60;;;;;;;22.49;64.56;98327.31;4975534;28;20228;-73
2023/07/11 00:27:41;;;;;;;4.93;3.70;;;;;;;22.45;64.39;98326.25;4975178;28;20263;-73
2023/07/11 00:30:08;;;;;;;4.38;3.80;;;;;;;22.54;63.79;98323.72;4975359;28;20215;-73
2023/07/11 00:32:35;;;;;;;4.72;3.95;;;;;;;22.50;64.62;98323.50;4974428;28;20216;-73
2023/07/11 00:35:01;;;;;;;5.78;4.10;;;;;;;22.49;64.88;98329.19;4974632;28;20204;-73
2023/07/11 00:37:28;;;;;;;5.93;4.00;;;;;;;22.46;64.16;98317.03;4974975;28;20707;-73
2023/07/11 00:39:54;;;;;;;5.00;3.70;;;;;;;22.44;64.15;98316.50;4974078;28;20572;-73
2023/07/11 00:42:21;;;;;;;6.93;3.97;;;;;;;22.41;63.97;98314.34;4975226;28;20233;-73
2023/07/11 00:44:56;;;;;;;4.28;3.85;;;;;;;22.38;64.54;98314.13;4975175;28;20224;-73
2023/07/11 00:47:26;;;;;;;5.65;4.07;;;;;;;22.37;64.02;98312.50;4974766;28;20235;-73
2023/07/11 00:49:56;;;;;;;4.90;3.55;;;;;;;22.40;63.95;98310.03;4973876;28;20212;-73
2023/07/11 00:52:23;;;;;;;4.47;4.07;;;;;;;22.36;63.77;98310.88;4974983;28;20710;-73
2023/07/11 00:54:55;;;;;;;5.53;3.78;;;;;;;22.32;63.56;98307.13;4974293;28;20215;-73
2023/07/11 00:57:25;;;;;;;5.75;4.00;;;;;;;22.30;63.67;98303.91;4975031;28;20233;-73
2023/07/11 00:59:52;;;;;;;5.30;3.95;;;;;;;22.29;64.45;98305.81;4975153;28;20215;-73
2023/07/11 01:02:23;;;;;;;6.32;4.35;;;;;;;22.22;64.70;98308.06;4974921;28;20212;-73
2023/07/11 01:04:49;;;;;;;5.88;4.15;;;;;;;22.23;64.47;98303.44;4974974;28;20216;-73
2023/07/11 01:07:21;;;;;;;4.82;4.32;;;;;;;22.19;65.23;98300.50;4974660;28;20599;-73
2023/07/11 01:09:47;;;;;;;4.90;4.40;;;;;;;22.22;64.11;98293.72;4975014;28;20196;-73
2023/07/11 01:12:15;;;;;;;7.05;4.25;;;;;;;22.16;64.49;98300.28;4966534;28;20201;-73
2023/07/11 01:14:45;;;;;;;4.93;4.30;;;;;;;22.19;64.17;98296.97;4955723;28;20211;-73
2023/07/11 01:17:28;;;;;;;6.85;4.55;;;;;;;22.20;64.98;98294.00;4966360;28;20235;-74
2023/07/11 01:19:56;;;;;;;6.57;4.40;;;;;;;22.16;65.54;98297.56;4974953;28;20208;-74
2023/07/11 01:22:24;;;;;;;5.72;4.72;;;;;;;22.16;66.08;98297.56;4974981;28;20207;-73
2023/07/11 01:24:52;;;;;;;7.10;4.83;;;;;;;22.11;66.83;98301.13;4973388;28;20236;-73
2023/07/11 01:27:21;;;;;;;5.13;4.57;;;;;;;22.14;67.11;98291.63;4974646;28;20258;-73
2023/07/11 01:29:50;;;;;;;5.15;4.32;;;;;;;22.02;67.83;98291.22;4973999;28;20554;-73
2023/07/11 01:32:17;;;;;;;5.20;4.70;;;;;;;21.99;68.57;98283.66;4973596;28;20570;-73
2023/07/11 01:34:44;;;;;;;6.10;4.50;;;;;;;21.94;69.28;98286.44;4974804;28;20204;-73
2023/07/11 01:37:10;;;;;;;6.45;5.05;;;;;;;21.93;69.00;98284.81;4974635;28;20227;-73
2023/07/11 01:39:37;;;;;;;5.77;4.63;;;;;;;21.87;69.46;98281.34;4973586;28;20215;-73
2023/07/11 01:42:04;;;;;;;8.90;4.95;;;;;;;21.82;69.83;98277.88;4973771;28;20208;-73
2023/07/11 01:44:32;;;;;;;5.40;4.70;;;;;;;21.82;70.32;98277.88;4974725;28;20231;-73
2023/07/11 01:46:58;;;;;;;5.30;4.50;;;;;;;21.79;70.61;98273.06;4975954;28;20250;-73
2023/07/11 01:49:25;;;;;;;6.88;4.82;;;;;;;21.75;70.98;98270.09;4978343;28;20208;-73
2023/07/11 01:52:03;;;;;;;5.13;4.63;;;;;;;21.81;70.94;98268.16;4977956;28;20590;-73
2023/07/11 01:54:30;;;;;;;6.27;4.40;;;;;;;21.84;69.24;98265.66;4978054;28;20235;-73
2023/07/11 01:56:56;;;;;;;6.23;4.60;;;;;;;21.84;70.42;98270.28;4977099;28;20715;-73
2023/07/11 01:59:23;;;;;;;5.17;4.53;;;;;;;21.80;70.51;98263.84;4976720;28;20675;-73
2023/07/11 02:01:49;;;;;;;4.73;4.00;;;;;;;21.74;71.14;98262.25;4977174;28;20208;-73
2023/07/11 02:04:21;;;;;;;4.93;4.43;;;;;;;21.66;71.36;98263.63;4977482;28;20708;-73
2023/07/11 02:06:47;;;;;;;7.33;4.27;;;;;;;21.66;71.36;98263.63;4977057;28;20338;-73
2023/07/11 02:09:14;;;;;;;5.33;4.60;;;;;;;21.67;71.43;98261.75;4978530;28;20666;-73
2023/07/11 02:11:40;;;;;;;5.63;4.50;;;;;;;21.65;71.31;98261.22;4977787;28;20570;-73
2023/07/11 02:14:06;;;;;;;7.40;4.23;;;;;;;21.61;72.11;98262.91;4977453;28;20686;-73
2023/07/11 02:16:33;;;;;;;5.03;4.53;;;;;;;21.53;73.04;98252.69;4976483;28;20699;-73
2023/07/11 02:18:59;;;;;;;6.77;4.30;;;;;;;21.47;72.90;98253.84;4977333;28;20691;-73
2023/07/11 02:21:25;;;;;;;5.30;4.20;;;;;;;21.47;72.53;98254.63;4977635;28;20208;-73
2023/07/11 02:23:52;;;;;;;4.93;3.90;;;;;;;21.41;72.92;98255.75;4977504;28;20228;-73
2023/07/11 02:26:19;;;;;;;4.47;3.93;;;;;;;21.40;73.79;98253.34;4976608;28;20235;-73
2023/07/11 02:28:46;;;;;;;5.77;4.77;;;;;;;21.33;73.64;98244.72;4977466;28;20226;-73
2023/07/11 02:31:12;;;;;;;6.60;4.67;;;;;;;21.19;76.08;98241.06;4975544;28;20212;-73
2023/07/11 02:33:40;;;;;;;4.43;4.03;;;;;;;21.18;75.66;98247.56;4957807;28;20684;-73
2023/07/11 02:36:06;;;;;;;6.03;4.43;;;;;;;21.17;75.53;98248.66;4958016;28;20229;-73
2023/07/11 02:38:33;;;;;;;5.93;4.03;;;;;;;21.11;75.70;98241.69;4958030;28;20217;-73
2023/07/11 02:40:59;;;;;;;5.30;4.67;;;;;;;21.12;75.13;98246.00;4957966;28;20212;-73
2023/07/11 02:43:25;;;;;;;4.63;4.20;;;;;;;21.04;76.62;98246.59;4976285;28;20225;-73
2023/07/11 02:45:52;;;;;;;4.90;4.37;;;;;;;21.04;76.10;98238.47;4976891;28;20238;-73
2023/07/11 02:48:18;;;;;;;6.03;4.20;;;;;;;21.05;75.77;98238.19;4977116;28;20262;-73
2023/07/11 02:50:44;;;;;;;6.90;4.60;;;;;;;21.10;75.73;98242.75;4977071;28;20219;-73
2023/07/11 02:53:11;;;;;;;6.27;4.53;;;;;;;21.00;75.85;98237.41;4976089;28;20207;-73
2023/07/11 02:55:40;;;;;;;6.33;4.93;;;;;;;21.00;76.03;98234.72;4976553;28;20675;-73
2023/07/11 02:58:07;;;;;;;4.73;4.33;;;;;;;20.87;76.99;98230.72;4975855;28;20220;-73
2023/07/11 03:00:33;;;;;;;5.47;4.57;;;;;;;20.84;79.07;98230.47;4976358;28;20208;-73
2023/07/11 03:02:59;;;;;;;5.27;4.50;;;;;;;20.79;78.72;98223.19;4976723;28;20219;-73
2023/07/11 03:05:26;;;;;;;5.20;4.70;;;;;;;20.81;79.64;98223.75;4975751;28;20707;-73
2023/07/11 03:07:52;;;;;;;5.23;4.60;;;;;;;20.85;78.74;98232.88;4976166;28;20232;-73
2023/07/11 03:10:19;;;;;;;5.70;5.10;;;;;;;20.98;78.03;98220.69;4976497;28;20211;-73
2023/07/11 03:12:45;;;;;;;5.10;4.53;;;;;;;20.93;78.48;98220.72;4976283;28;20215;-73
2023/07/11 03:15:11;;;;;;;8.67;5.10;;;;;;;20.88;80.63;98218.81;4976543;28;20572;-73
2023/07/11 03:17:38;;;;;;;9.00;5.47;;;;;;;20.85;79.95;98226.69;4975289;28;20231;-73
2023/07/11 03:20:04;;;;;;;6.00;5.40;;;;;;;20.85;79.80;98222.06;4976086;28;20292;-73
2023/07/11 03:22:31;;;;;;;7.40;5.50;;;;;;;20.72;81.31;98220.00;4976138;28;20215;-73
2023/07/11 03:24:57;;;;;;;7.63;5.43;;;;;;;20.73;80.48;98220.81;4976140;28;20232;-73
2023/07/11 03:27:23;;;;;;;6.73;5.40;;;;;;;20.73;80.50;98215.41;4960636;28;20228;-73
2023/07/11 03:29:50;;;;;;;7.40;5.67;;;;;;;20.68;81.53;98212.72;4957031;28;20204;-73
2023/07/11 03:32:16;;;;;;;5.90;5.40;;;;;;;20.68;81.68;98210.84;4957042;28;20220;-73
2023/07/11 03:34:43;;;;;;;6.70;5.67;;;;;;;20.65;81.80;98207.88;4956745;28;20204;-74
2023/07/11 03:37:09;;;;;;;8.43;5.60;;;;;;;20.65;81.74;98207.88;4956689;28;20232;-74
2023/07/11 03:39:35;;;;;;;5.77;5.27;;;;;;;20.58;82.26;98204.69;4974121;28;20207;-73
2023/07/11 03:42:02;;;;;;;6.23;5.37;;;;;;;20.62;82.04;98205.75;4975702;28;20208;-73
2023/07/11 03:44:28;;;;;;;7.97;5.30;;;;;;;20.58;82.15;98204.69;4975860;28;20246;-74
2023/07/11 03:46:54;;;;;;;5.70;4.80;;;;;;;20.63;82.18;98204.66;4975662;28;20238;-74
2023/07/11 03:49:21;;;;;;;6.83;5.37;;;;;;;20.62;82.17;98203.84;4975047;28;20212;-74
2023/07/11 03:51:47;;;;;;;6.07;5.03;;;;;;;20.72;81.64;98205.69;4976002;28;20216;-74
2023/07/11 03:54:13;;;;;;;6.07;5.37;;;;;;;20.74;81.58;98209.72;4975525;28;20204;-73
2023/07/11 03:56:40;;;;;;;5.27;4.70;;;;;;;20.70;82.87;98205.19;4975750;28;20234;-73
2023/07/11 03:59:06;;;;;;;6.97;5.30;;;;;;;20.76;82.69;98207.53;4975038;28;20224;-74
2023/07/11 04:01:32;;;;;;;5.80;5.20;;;;;;;20.77;81.85;98211.88;4970855;28;20678;-74
2023/07/11 04:03:59;;;;;;;5.10;4.60;;;;;;;20.76;82.44;98206.75;4971686;28;20663;-74
2023/07/11 04:06:25;;;;;;;5.63;4.90;;;;;;;20.76;83.36;98212.16;4975097;28;20729;-73
2023/07/11 04:08:51;;;;;;;5.60;4.93;;;;;;;20.76;83.67;98198.63;4972705;28;20226;-73
2023/07/11 04:11:18;;;;;;;5.40;4.60;;;;;;;20.71;84.25;98193.28;4973487;28;20580;-73
2023/07/11 04:13:44;;;;;;;6.80;5.00;;;;;;;20.74;82.79;98195.41;4974416;28;20212;-73
2023/07/11 04:16:10;;;;;;;6.43;5.00;;;;;;;20.76;83.35;98194.03;4974002;28;20224;-73
2023/07/11 04:18:37;;;;;;;6.70;5.00;;;;;;;20.84;82.51;98198.06;4966640;28;20230;-73
2023/07/11 04:21:03;;;;;;;5.73;4.80;;;;;;;20.86;82.52;98191.28;4972982;28;20208;-73
2023/07/11 04:23:30;;;;;;;5.13;4.60;;;;;;;20.85;82.57;98186.16;4978166;28;20282;-74
2023/07/11 04:25:56;;;;;;;5.67;4.80;;;;;;;20.88;82.64;98180.16;4976961;28;20659;-74
2023/07/11 04:28:22;;;;;;;5.03;4.53;;;;;;;20.92;81.50;98190.19;4974965;28;20218;-74
2023/07/11 04:30:49;;;;;;;5.83;4.63;;;;;;;21.01;80.85;98185.78;4974751;28;20208;-73
2023/07/11 04:33:15;;;;;;;6.47;4.63;;;;;;;21.04;79.52;98187.09;4975636;28;20563;-73
2023/07/11 04:35:44;;;;;;;5.40;4.70;;;;;;;21.05;79.56;98189.53;4975093;28;20207;-73
2023/07/11 04:38:10;;;;;;;6.57;5.00;;;;;;;21.10;80.00;98194.09;4971063;28;20690;-73
2023/07/11 04:40:37;;;;;;;6.90;4.70;;;;;;;21.15;79.77;98197.56;4977369;28;20195;-73
2023/07/11 04:43:03;;;;;;;5.60;4.83;;;;;;;21.23;78.08;98193.44;4994535;28;20203;-73
2023/07/11 04:45:30;;;;;;;7.57;5.17;;;;;;;21.31;78.39;98190.94;4982018;28;20227;-74
2023/07/11 04:47:58;;;;;;;8.33;5.17;;;;;;;21.24;79.15;98189.63;4966762;28;20615;-74
2023/07/11 04:50:24;;;;;;;5.67;5.07;;;;;;;21.38;77.31;98196.03;4972218;28;20208;-74
2023/07/11 04:52:51;;;;;;;6.43;5.13;;;;;;;21.38;76.37;98190.63;4973819;28;20211;-74
2023/07/11 04:55:17;;;;;;;5.37;4.20;;;;;;;21.42;77.56;98181.63;4970477;28;20559;-74
2023/07/11 04:57:43;;;;;;;5.60;4.67;;;;;;;21.41;77.45;98193.56;4993659;28;20230;-74
2023/07/11 05:00:10;;;;;;;7.73;5.00;;;;;;;21.46;76.73;98193.50;4955137;28;20208;-74
2023/07/11 05:02:37;;;;;;;5.73;5.10;;;;;;;21.54;75.76;98186.66;4953842;28;20204;-74
2023/07/11 05:05:03;;;;;;;10.10;4.90;;;;;;;21.56;77.20;98185.28;4954178;28;20224;-74
2023/07/11 05:07:30;;;;;;;6.23;5.30;;;;;;;21.66;76.20;98192.50;4953144;28;20602;-74
2023/07/11 05:09:56;;;;;;;6.40;5.23;;;;;;;21.70;74.86;98196.28;4953778;28;20218;-74
2023/07/11 05:12:23;;;;;;;7.17;5.10;;;;;;;21.75;73.76;98183.47;4953847;28;20214;-74
2023/07/11 05:14:49;;;;;;;6.10;5.50;;;;;;;22.06;73.03;98187.47;4953700;28;20204;-74
2023/07/11 05:17:15;;;;;;;7.13;5.50;;;;;;;22.20;71.50;98187.56;4954422;28;20224;-74
2023/07/11 05:19:42;;;;;;;6.40;5.33;;;;;;;22.30;71.99;98187.44;4954843;28;20213;-74
2023/07/11 05:22:08;;;;;;;7.18;5.30;;;;;;;22.43;72.08;98186.72;4957892;28;20209;-74
2023/07/11 05:24:34;;;;;;;6.53;5.30;;;;;;;22.71;69.66;98178.47;4958457;28;20231;-73
2023/07/11 05:27:01;;;;;;;5.18;4.68;;;;;;;22.77;68.80;98171.91;4958655;28;20224;-73
2023/07/11 05:29:27;;;;;;;8.25;5.47;;;;;;;22.98;67.90;98173.19;4958712;28;20214;-74
2023/07/11 05:31:53;;;;;;;6.90;5.30;;;;;;;23.02;68.07;98168.00;4958902;28;20212;-73
2023/07/11 05:34:20;;;;;;;6.47;5.63;;;;;;;23.02;68.50;98168.78;4958876;28;20239;-74
2023/07/11 05:36:46;;;;;;;8.25;5.90;;;;;;;22.84;68.90;98166.91;4958045;28;20238;-74
2023/07/11 05:39:15;;;;;;;7.32;5.75;;;;;;;22.77;68.99;98168.38;4958633;28;20214;-74
2023/07/11 05:41:50;;;;;;;7.82;5.68;;;;;;;22.76;69.38;98164.88;4958372;28;20216;-74
2023/07/11 05:44:17;;;;;;;5.82;5.32;;;;;;;22.65;69.88;98157.19;4958438;28;20200;-74
2023/07/11 05:46:43;;;;;;;6.72;5.38;;;;;;;22.72;70.15;98163.84;4958139;28;20247;-73
2023/07/11 05:49:10;;;;;;;9.13;5.80;;;;;;;22.79;69.53;98160.75;4957795;28;20223;-74
2023/07/11 05:51:36;;;;;;;9.25;5.30;;;;;;;22.88;68.99;98150.88;4957789;28;20308;-74
2023/07/11 05:54:03;;;;;;;8.85;5.57;;;;;;;22.91;69.67;98151.06;4958354;28;20215;-74
2023/07/11 05:56:29;;;;;;;6.85;5.57;;;;;;;23.05;70.24;98156.53;4958010;28;20742;-73
2023/07/11 05:58:56;;;;;;;7.60;6.13;;;;;;;23.04;69.23;98150.31;4958191;28;20231;-74
2023/07/11 06:01:28;;;;;;;11.57;6.70;;;;;;;23.14;68.27;98150.13;4958395;28;20213;-74
2023/07/11 06:04:11;;;;;;;9.98;6.78;;;;;;;23.23;68.17;98144.84;4957986;28;20200;-74
2023/07/11 06:06:42;;;;;;;11.15;6.65;;;;;;;23.38;67.47;98145.41;4957687;28;20728;-74
2023/07/11 06:09:14;;;;;;;12.98;6.85;;;;;;;23.40;67.13;98143.22;4958027;28;20641;-74
2023/07/11 06:11:40;;;;;;;10.60;6.80;;;;;;;23.53;65.58;98152.47;4958258;28;20299;-74
2023/07/11 06:14:08;;;;;;;12.02;7.00;;;;;;;23.46;66.85;98146.63;4957489;28;20209;-74
2023/07/11 06:16:34;;;;;;;7.95;6.20;;;;;;;23.49;65.51;98136.00;4957416;28;20709;-72
2023/07/11 06:19:01;;;;;;;7.00;6.30;;;;;;;23.70;64.15;98137.19;4957209;28;20216;-72
2023/07/11 06:21:27;;;;;;;12.73;6.85;;;;;;;23.64;64.78;98137.59;4957202;28;20209;-72
2023/07/11 06:23:53;;;;;;;8.30;6.57;;;;;;;23.91;63.49;98135.72;4957301;28;20208;-72
2023/07/11 06:26:20;;;;;;;11.05;6.53;;;;;;;23.85;64.41;98142.34;4957236;28;20236;-72
2023/07/11 06:28:46;;;;;;;9.15;5.63;;;;;;;23.80;65.05;98136.19;4957968;28;20224;-72
2023/07/11 06:31:13;;;;;;;10.23;5.90;;;;;;;23.83;65.27;98133.69;4956907;28;20691;-72
2023/07/11 06:33:40;;;;;;;8.52;6.07;;;;;;;23.88;64.70;98138.22;4957370;28;20215;-72
2023/07/11 06:36:07;;;;;;;10.30;6.30;;;;;;;23.89;64.03;98135.22;4956659;28;20229;-72
2023/07/11 06:38:34;;;;;;;10.70;6.40;;;;;;;23.99;64.54;98139.66;4955809;28;20224;-72
2023/07/11 06:41:01;;;;;;;12.38;6.82;;;;;;;24.18;63.89;98134.88;4955842;28;20209;-72
2023/07/11 06:43:28;;;;;;;9.02;6.68;;;;;;;24.20;63.50;98130.75;4955607;28;20204;-72
2023/07/11 06:45:57;;;;;;;9.18;6.10;;;;;;;24.48;60.94;98129.63;4955225;28;20233;-73
2023/07/11 06:48:26;;;;;;;11.30;5.93;;;;;;;24.45;61.38;98134.84;4955243;28;20193;-73
2023/07/11 06:51:04;;;;;;;7.45;5.57;;;;;;;24.64;59.90;98127.34;4955735;28;20204;-72
2023/07/11 06:53:34;;;;;;;9.15;6.43;;;;;;;24.57;61.36;98129.69;4956785;28;20264;-72
2023/07/11 06:56:00;;;;;;;10.75;6.32;;;;;;;24.57;61.83;98124.25;4956788;28;20645;-72
2023/07/11 06:58:27;;;;;;;9.93;6.10;;;;;;;24.77;60.21;98118.34;4956778;28;20209;-72
2023/07/11 07:00:56;;;;;;;7.72;5.80;;;;;;;24.90;60.59;98112.88;4956944;28;20205;-72
2023/07/11 07:03:24;;;;;;;8.07;5.80;;;;;;;24.99;59.37;98116.44;4956682;28;20210;-72
2023/07/11 07:06:02;;;;;;;7.45;5.63;;;;;;;24.99;58.66;98121.06;4956938;28;20232;-73
2023/07/11 07:08:28;;;;;;;11.15;5.85;;;;;;;25.12;59.07;98122.91;4956599;28;20216;-73
2023/07/11 07:10:55;;;;;;;9.50;5.90;;;;;;;25.16;58.03;98115.75;4956780;28;20208;-72
2023/07/11 07:13:23;;;;;;;8.30;5.35;;;;;;;25.24;57.77;98123.16;4956068;28;20215;-72
2023/07/11 07:15:52;;;;;;;8.90;6.07;;;;;;;25.40;58.10;98119.75;4956639;28;20209;-72
2023/07/11 07:18:18;;;;;;;9.50;5.68;;;;;;;25.52;57.37;98116.44;4956652;28;20212;-73
2023/07/11 07:20:46;;;;;;;10.05;5.40;;;;;;;25.57;55.59;98119.03;4956378;28;20204;-73
2023/07/11 07:23:12;;;;;;;7.57;5.38;;;;;;;25.76;56.35;98108.69;4956683;28;20208;-72
2023/07/11 07:25:39;;;;;;;6.20;5.35;;;;;;;25.81;55.76;98111.28;4956400;28;20311;-73
2023/07/11 07:28:06;;;;;;;6.53;5.22;;;;;;;25.94;54.39;98099.50;4956510;28;20220;-73
2023/07/11 07:30:33;;;;;;;7.32;5.50;;;;;;;26.06;53.98;98099.69;4956454;28;20208;-72
2023/07/11 07:32:59;;;;;;;9.65;5.65;;;;;;;26.18;54.30;98103.38;4956085;28;20213;-73
2023/07/11 07:35:26;;;;;;;7.00;5.68;;;;;;;26.33;52.77;98108.38;4955964;28;20216;-73
2023/07/11 07:37:52;;;;;;;8.30;5.20;;;;;;;26.45;52.69;98102.28;4956126;28;20734;-73
2023/07/11 07:40:18;;;;;;;6.00;4.60;;;;;;;26.58;50.29;98101.38;4956774;28;20212;-72
2023/07/11 07:42:45;;;;;;;6.47;5.18;;;;;;;26.45;51.54;98094.13;4956218;28;20688;-72
2023/07/11 07:45:11;;;;;;;6.47;4.85;;;;;;;26.49;51.55;98095.91;4955809;28;20228;-72
2023/07/11 07:47:38;;;;;;;5.53;4.93;;;;;;;26.58;52.20;98087.72;4956121;28;20240;-72
2023/07/11 07:50:05;;;;;;;7.75;5.45;;;;;;;26.60;51.94;98096.41;4956469;28;20289;-72
2023/07/11 07:52:31;;;;;;;8.57;5.45;;;;;;;26.61;52.38;98096.09;4956417;28;20209;-73
2023/07/11 07:54:57;;;;;;;9.35;5.60;;;;;;;26.69;52.12;98086.31;4956170;28;20225;-73
2023/07/11 07:57:24;;;;;;;9.48;5.05;;;;;;;26.83;52.05;98081.47;4956011;28;20684;-72
2023/07/11 07:59:50;;;;;;;6.22;5.30;;;;;;;26.99;50.52;98088.00;4956281;28;20216;-72
2023/07/11 08:02:16;;;;;;;10.93;5.60;;;;;;;27.10;50.41;98086.56;4956077;28;20208;-73
2023/07/11 08:04:43;;;;;;;7.00;5.15;;;;;;;27.24;50.30;98083.66;4956219;28;20208;-72
2023/07/11 08:07:09;;;;;;;8.43;5.22;;;;;;;27.42;49.10;98074.28;4956322;28;20356;-73
2023/07/11 08:09:35;;;;;;;7.35;5.07;;;;;;;27.48;49.53;98078.47;4956311;28;20210;-72
2023/07/11 08:12:10;;;;;;;6.70;5.30;;;;;;;27.64;48.95;98069.38;4955872;28;20212;-73
2023/07/11 08:14:41;;;;;;;9.95;5.00;;;;;;;27.76;48.75;98069.47;4956128;28;20208;-73
2023/07/11 08:17:09;;;;;;;7.70;4.95;;;;;;;28.07;47.55;98066.44;4956004;28;20228;-72
2023/07/11 08:19:36;;;;;;;6.50;5.53;;;;;;;27.81;47.71;98058.38;4956066;28;20212;-73
2023/07/11 08:22:02;;;;;;;8.02;5.05;;;;;;;27.88;47.74;98057.84;4956222;28;20205;-73
2023/07/11 08:24:29;;;;;;;6.28;5.20;;;;;;;28.10;47.35;98063.84;4956076;28;20208;-73
2023/07/11 08:26:55;;;;;;;7.00;5.47;;;;;;;27.95;47.40;98052.69;4955844;28;20252;-73
2023/07/11 08:29:22;;;;;;;5.47;4.97;;;;;;;28.28;47.62;98054.38;4955871;28;20212;-73
2023/07/11 08:31:48;;;;;;;8.77;5.15;;;;;;;28.46;46.88;98047.69;4955501;28;20220;-73
2023/07/11 08:34:15;;;;;;;6.38;4.82;;;;;;;28.35;46.71;98045.66;4955693;28;20220;-72
2023/07/11 08:36:42;;;;;;;7.90;4.85;;;;;;;28.39;45.64;98049.31;4955278;28;20266;-72
2023/07/11 08:39:08;;;;;;;6.28;4.90;;;;;;;28.59;45.27;98041.13;4955699;28;20224;-72
2023/07/11 08:41:45;;;;;;;5.80;4.65;;;;;;;28.60;44.97;98036.44;4955537;28;20216;-73
2023/07/11 08:44:18;;;;;;;8.30;5.03;;;;;;;28.73;45.20;98038.09;4956568;28;20200;-73
2023/07/11 08:47:03;;;;;;;5.63;5.07;;;;;;;28.78;44.86;98030.50;4955282;28;20700;-73
2023/07/11 08:49:59;;;;;;;14.40;5.60;;;;;;;28.99;44.93;98025.78;4955772;28;20192;-73
2023/07/11 08:52:27;;;;;;;7.60;5.32;;;;;;;29.16;44.46;98030.28;4955628;29;20212;-73
2023/07/11 08:55:03;;;;;;;7.82;5.22;;;;;;;29.15;44.33;98025.91;4955935;28;20216;-73
2023/07/11 08:57:35;;;;;;;8.13;5.22;;;;;;;29.24;45.08;98023.88;4954931;28;20232;-73
2023/07/11 09:00:16;;;;;;;5.72;4.78;;;;;;;29.56;43.48;98010.13;4955345;28;20201;-73
2023/07/11 09:02:54;;;;;;;6.82;5.43;;;;;;;29.47;44.30;98012.16;4954914;28;20197;-73
2023/07/11 09:05:41;;;;;;;6.93;5.40;;;;;;;29.79;43.40;98013.22;4955235;28;20204;-73
2023/07/11 09:08:17;;;;;;;11.32;5.22;;;;;;;29.94;43.41;98007.03;4955305;28;20197;-72
2023/07/11 09:10:46;;;;;;;5.97;5.47;;;;;;;29.90;44.07;97998.72;4954967;28;20563;-72
2023/07/11 09:13:29;;;;;;;8.93;5.75;;;;;;;30.09;43.29;97998.88;4954744;28;20219;-73
2023/07/11 09:16:12;;;;;;;5.85;5.07;;;;;;;30.38;42.21;97986.84;4955108;28;20232;-73
2023/07/11 09:19:02;;;;;;;6.25;4.90;;;;;;;30.40;42.84;97985.34;4955090;28;20196;-73
2023/07/11 09:22:01;;;;;;;5.82;4.88;;;;;;;30.65;43.43;97973.09;4953834;28;20668;-73
2023/07/11 09:24:52;;;;;;;6.93;5.38;;;;;;;30.71;43.94;97971.72;4955114;28;20232;-73
2023/07/11 09:27:27;;;;;;;5.68;5.10;;;;;;;30.94;43.41;97972.75;4954932;28;20236;-72
2023/07/11 09:29:55;;;;;;;6.95;5.25;;;;;;;31.11;42.83;97964.16;4954796;28;20196;-72
2023/07/11 09:32:33;;;;;;;8.63;5.00;;;;;;;30.48;42.94;97964.38;4954702;28;20680;-73
2023/07/11 09:35:21;;;;;;;5.13;4.40;;;;;;;31.06;42.75;97961.66;4954871;28;20283;-73
2023/07/11 09:37:50;;;;;;;8.18;5.40;;;;;;;31.16;42.17;97954.84;4954300;28;20720;-73
2023/07/11 09:40:28;;;;;;;9.90;5.78;;;;;;;30.95;41.68;97960.59;4954978;28;20214;-73
2023/07/11 09:42:57;;;;;;;7.65;5.70;;;;;;;30.83;42.63;97952.44;4954838;28;20199;-73
2023/07/11 09:45:32;;;;;;;5.82;5.18;;;;;;;31.14;42.49;97944.22;4954841;28;20213;-73
2023/07/11 09:48:27;;;;;;;7.68;5.60;;;;;;;31.43;42.30;97956.72;4954582;28;20216;-73
2023/07/11 09:51:11;;;;;;;6.70;5.00;;;;;;;31.27;42.45;97945.75;4953973;29;20365;-73
2023/07/11 09:53:43;;;;;;;7.57;5.55;;;;;;;31.48;42.22;97946.25;4954842;28;20259;-73
2023/07/11 09:56:15;;;;;;;6.30;5.70;;;;;;;31.36;42.01;97942.81;4954752;28;20224;-72
2023/07/11 09:58:46;;;;;;;5.82;5.03;;;;;;;31.94;40.62;97947.31;4954356;28;20677;-72
2023/07/11 10:01:24;;;;;;;5.70;5.00;;;;;;;31.88;40.81;97946.81;4954845;28;20204;-72
2023/07/11 10:03:54;;;;;;;5.78;5.18;;;;;;;31.80;39.87;97936.81;4954902;28;20200;-72
2023/07/11 10:06:41;;;;;;;5.95;5.35;;;;;;;31.99;39.60;97931.34;4954968;28;20244;-72
2023/07/11 10:09:31;;;;;;;5.93;5.32;;;;;;;32.01;39.32;97929.03;4958174;28;20222;-72
2023/07/11 10:12:16;;;;;;;8.43;5.60;;;;;;;32.17;39.92;97927.00;4957931;29;20209;-72
2023/07/11 10:14:44;;;;;;;6.72;5.60;;;;;;;32.34;40.07;97923.81;4957919;28;20629;-72
2023/07/11 10:17:21;;;;;;;5.78;5.22;;;;;;;32.37;39.88;97928.63;4958075;28;20226;-73
2023/07/11 10:19:56;;;;;;;6.05;5.20;;;;;;;32.45;38.94;97913.84;4958023;28;20197;-73
2023/07/11 10:22:26;;;;;;;7.25;4.90;;;;;;;32.51;38.83;97917.88;4957721;28;20656;-73
2023/07/11 10:25:03;;;;;;;5.40;4.90;;;;;;;32.60;39.37;97920.41;4958050;28;20204;-73
2023/07/11 10:27:37;;;;;;;6.10;5.60;;;;;;;32.19;38.76;97921.94;4957404;28;20611;-73
2023/07/11 10:30:06;;;;;;;6.47;5.50;;;;;;;32.32;39.70;97919.84;4957621;28;20204;-73
2023/07/11 10:32:46;;;;;;;5.50;5.00;;;;;;;32.56;38.80;97908.53;4957795;28;20208;-72
2023/07/11 10:35:19;;;;;;;6.18;5.55;;;;;;;32.50;38.34;97910.78;4957395;28;20636;-73
2023/07/11 10:38:10;;;;;;;6.32;5.38;;;;;;;32.66;38.19;97913.44;4956450;29;20229;-73
2023/07/11 10:40:46;;;;;;;7.88;5.03;;;;;;;32.89;36.70;97909.56;4955884;29;20205;-73
2023/07/11 10:43:23;;;;;;;6.65;5.18;;;;;;;33.26;36.80;97910.59;4957643;28;20197;-72
2023/07/11 10:45:53;;;;;;;5.68;4.82;;;;;;;33.36;37.19;97898.16;4957031;28;20192;-73
2023/07/11 10:48:32;;;;;;;9.07;5.88;;;;;;;32.54;37.69;97895.13;4956228;29;20199;-72
2023/07/11 10:51:08;;;;;;;5.95;5.28;;;;;;;32.35;37.81;97884.16;4957645;28;20212;-72
2023/07/11 10:54:03;;;;;;;5.72;5.00;;;;;;;32.54;38.11;97888.81;4957136;28;20211;-72
2023/07/11 10:56:53;;;;;;;6.82;5.25;;;;;;;32.73;37.54;97892.31;4957003;28;20664;-72
2023/07/11 10:59:23;;;;;;;6.05;5.22;;;;;;;32.74;37.35;97891.16;4957292;28;20208;-72
2023/07/11 11:02:04;;;;;;;7.22;5.93;;;;;;;32.68;37.81;97887.13;4957434;28;20204;-72
2023/07/11 11:04:52;;;;;;;6.15;5.40;;;;;;;32.61;37.98;97878.72;4957227;28;20189;-73
2023/07/11 11:07:34;;;;;;;8.32;5.47;;;;;;;32.70;38.43;97881.25;4957071;28;20232;-73
2023/07/11 11:10:26;;;;;;;6.00;5.30;;;;;;;32.50;38.06;97876.94;4956449;28;20657;-73
2023/07/11 11:13:18;;;;;;;9.23;5.43;;;;;;;31.95;39.13;97864.47;4957023;28;20193;-75
2023/07/11 11:16:01;;;;;;;7.50;6.00;;;;;;;32.20;38.87;97862.22;4957192;28;20193;-74
2023/07/11 11:18:30;;;;;;;6.97;5.47;;;;;;;31.97;39.86;97848.38;4955018;28;20256;-75
2023/07/11 11:21:18;;;;;;;6.13;5.35;;;;;;;32.61;39.29;97844.91;4956787;28;20216;-75
2023/07/11 11:24:26;;;;;;;7.40;6.03;;;;;;;32.49;39.18;97848.66;4956795;28;20197;-75
2023/07/11 11:27:20;;;;;;;7.85;5.65;;;;;;;32.47;39.74;97836.41;4956043;29;20599;-75
2023/07/11 11:30:02;;;;;;;7.68;5.88;;;;;;;32.67;39.16;97838.75;4956587;28;20189;-75
2023/07/11 11:32:45;;;;;;;6.60;5.50;;;;;;;32.91;38.60;97834.81;4956573;28;20640;-75
2023/07/11 11:35:20;;;;;;;6.40;5.40;;;;;;;32.93;38.82;97827.78;4956778;28;20196;-74
2023/07/11 11:38:09;;;;;;;6.88;5.47;;;;;;;33.19;38.82;97827.00;4956641;28;20220;-74
2023/07/11 11:40:40;;;;;;;7.93;5.63;;;;;;;33.11;38.51;97823.34;4956639;28;20209;-74
2023/07/11 11:43:12;;;;;;;5.97;5.38;;;;;;;33.18;38.13;97820.69;4956507;28;20189;-73
2023/07/11 11:45:40;;;;;;;7.47;5.80;;;;;;;33.04;38.23;97808.66;4956116;28;20220;-73